createdAt,value
2023-02-03T00:02:00.436Z,11.32
2023-02-03T00:04:27.079Z,11.29
2023-02-03T00:06:53.815Z,11.04
2023-02-03T00:09:20.994Z,10.78
2023-02-03T00:11:47.882Z,10.77
2023-02-03T00:14:14.730Z,10.83
2023-02-03T00:16:41.619Z,11.02
2023-02-03T00:19:08.249Z,11.08
2023-02-03T00:21:34.915Z,10.95
2023-02-03T00:24:01.614Z,10.75
2023-02-03T00:26:28.711Z,10.99
2023-02-03T00:28:57.665Z,10.95
2023-02-03T00:31:24.743Z,11.04
2023-02-03T00:33:57.199Z,11.17
2023-02-03T00:36:26.947Z,10.99
2023-02-03T00:38:54.247Z,10.99
2023-02-03T00:41:21.482Z,10.96
2023-02-03T00:43:49.267Z,11.00
2023-02-03T00:46:16.308Z,10.97
2023-02-03T00:48:45.465Z,10.97
2023-02-03T00:51:12.971Z,10.74
2023-02-03T00:53:39.614Z,10.80
2023-02-03T00:56:12.423Z,10.82
2023-02-03T00:58:43.343Z,10.80
2023-02-03T01:01:10.459Z,10.86
2023-02-03T01:03:37.956Z,11.11
2023-02-03T01:06:18.828Z,10.74
2023-02-03T01:08:47.485Z,10.96
2023-02-03T01:11:17.222Z,11.05
2023-02-03T01:13:45.163Z,10.88
2023-02-03T01:16:14.734Z,10.64
2023-02-03T01:18:42.862Z,10.69
2023-02-03T01:21:19.112Z,10.83
2023-02-03T01:23:46.256Z,10.95
2023-02-03T01:26:15.246Z,10.61
2023-02-03T01:28:42.488Z,10.77
2023-02-03T01:31:09.389Z,10.86
2023-02-03T01:33:36.612Z,10.60
2023-02-03T01:36:03.311Z,10.56
2023-02-03T01:38:30.421Z,10.90
2023-02-03T01:40:57.060Z,10.55
2023-02-03T01:43:36.077Z,10.65
2023-02-03T01:46:16.517Z,10.40
2023-02-03T01:48:43.528Z,10.40
2023-02-03T01:51:10.242Z,10.51
2023-02-03T01:53:37.685Z,10.57
2023-02-03T01:56:06.213Z,10.55
2023-02-03T01:58:38.109Z,10.65
2023-02-03T02:01:05.345Z,10.73
2023-02-03T02:03:40.398Z,10.47
2023-02-03T02:06:09.834Z,10.72
2023-02-03T02:08:38.604Z,10.68
2023-02-03T02:11:06.912Z,10.86
2023-02-03T02:13:35.056Z,10.93
2023-02-03T02:16:31.765Z,10.68
2023-02-03T02:19:16.640Z,10.59
2023-02-03T02:22:00.498Z,10.60
2023-02-03T02:24:56.505Z,10.84
2023-02-03T02:27:35.425Z,10.41
2023-02-03T02:30:08.251Z,10.66
2023-02-03T02:32:59.891Z,10.68
2023-02-03T02:35:50.073Z,10.67
2023-02-03T02:38:34.960Z,10.73
2023-02-03T02:41:14.205Z,10.84
2023-02-03T02:43:47.796Z,10.76
2023-02-03T02:46:24.099Z,10.86
2023-02-03T02:49:12.878Z,10.76
2023-02-03T02:51:40.844Z,10.72
2023-02-03T02:54:11.771Z,10.89
2023-02-03T02:56:41.468Z,11.09
2023-02-03T02:59:09.345Z,10.78
2023-02-03T03:01:36.131Z,10.95
2023-02-03T03:04:06.266Z,11.18
2023-02-03T03:06:59.945Z,10.99
2023-02-03T03:09:40.704Z,11.02
2023-02-03T03:12:13.695Z,11.06
2023-02-03T03:14:45.423Z,11.04
2023-02-03T03:17:20.084Z,10.99
2023-02-03T03:19:52.291Z,11.16
2023-02-03T03:22:22.860Z,11.37
2023-02-03T03:24:56.118Z,11.00
2023-02-03T03:27:29.430Z,11.27
2023-02-03T03:30:00.681Z,11.23
2023-02-03T03:32:28.100Z,11.20
2023-02-03T03:34:55.442Z,11.13
2023-02-03T03:37:34.521Z,10.88
2023-02-03T03:40:10.209Z,10.69
2023-02-03T03:43:01.332Z,10.80
2023-02-03T03:45:49.358Z,10.79
2023-02-03T03:48:17.888Z,10.99
2023-02-03T03:50:51.470Z,10.80
2023-02-03T03:53:20.363Z,10.86
2023-02-03T03:55:50.495Z,10.80
2023-02-03T03:58:23.234Z,10.98
2023-02-03T04:00:50.912Z,10.88
2023-02-03T04:03:28.258Z,10.93
2023-02-03T04:05:54.951Z,10.93
2023-02-03T04:08:21.614Z,10.63
2023-02-03T04:10:48.273Z,10.65
2023-02-03T04:13:16.123Z,10.66
2023-02-03T04:15:42.810Z,10.80
2023-02-03T04:18:12.180Z,10.32
2023-02-03T04:20:38.885Z,10.59
2023-02-03T04:23:05.768Z,10.87
2023-02-03T04:25:32.442Z,10.85
2023-02-03T04:27:59.101Z,10.85
2023-02-03T04:30:26.124Z,10.74
2023-02-03T04:32:53.539Z,10.94
2023-02-03T04:35:20.568Z,10.98
2023-02-03T04:37:47.268Z,11.00
2023-02-03T04:40:14.490Z,10.95
2023-02-03T04:42:41.872Z,11.16
2023-02-03T04:45:10.211Z,11.07
2023-02-03T04:47:37.256Z,11.04
2023-02-03T04:50:04.231Z,10.96
2023-02-03T04:52:31.235Z,11.12
2023-02-03T04:54:57.905Z,10.95
2023-02-03T04:57:24.539Z,11.01
2023-02-03T04:59:51.191Z,10.59
2023-02-03T05:02:17.862Z,11.07
2023-02-03T05:04:44.539Z,11.03
2023-02-03T05:07:11.546Z,10.77
2023-02-03T05:09:38.204Z,11.16
2023-02-03T05:12:05.121Z,10.97
2023-02-03T05:14:31.796Z,10.99
2023-02-03T05:16:58.553Z,10.94
2023-02-03T05:19:25.222Z,10.87
2023-02-03T05:21:52.016Z,11.02
2023-02-03T05:24:18.666Z,10.98
2023-02-03T05:26:45.363Z,11.10
2023-02-03T05:29:12.052Z,10.97
2023-02-03T05:31:38.772Z,11.13
2023-02-03T05:34:05.439Z,11.09
2023-02-03T05:36:32.150Z,11.00
2023-02-03T05:38:58.958Z,11.10
2023-02-03T05:41:44.382Z,10.82
2023-02-03T05:44:11.225Z,10.81
2023-02-03T05:46:37.844Z,10.81
2023-02-03T05:49:04.628Z,10.64
2023-02-03T05:51:31.244Z,10.65
2023-02-03T05:53:57.962Z,10.76
2023-02-03T05:56:24.603Z,10.88
2023-02-03T05:58:53.859Z,11.02
2023-02-03T06:01:20.567Z,11.01
2023-02-03T06:03:52.939Z,10.85
2023-02-03T06:06:19.804Z,10.96
2023-02-03T06:08:51.075Z,10.91
2023-02-03T06:11:18.025Z,10.93
2023-02-03T06:13:44.646Z,11.01
2023-02-03T06:16:11.320Z,10.89
2023-02-03T06:18:37.936Z,10.91
2023-02-03T06:21:04.760Z,10.96
2023-02-03T06:23:33.762Z,10.98
2023-02-03T06:26:00.539Z,10.82
2023-02-03T06:28:27.194Z,10.73
2023-02-03T06:30:54.074Z,10.91
2023-02-03T06:33:20.900Z,10.60
2023-02-03T06:35:47.763Z,10.83
2023-02-03T06:38:15.575Z,10.82
2023-02-03T06:40:42.181Z,10.78
2023-02-03T06:43:08.851Z,10.81
2023-02-03T06:45:35.679Z,10.78
2023-02-03T06:48:05.465Z,10.58
2023-02-03T06:50:35.921Z,10.81
2023-02-03T06:53:02.671Z,10.66
2023-02-03T06:55:29.445Z,10.73
2023-02-03T06:57:56.175Z,10.67
2023-02-03T07:00:22.937Z,10.64
2023-02-03T07:02:54.228Z,10.59
2023-02-03T07:05:22.011Z,10.58
2023-02-03T07:07:48.764Z,10.73
2023-02-03T07:10:15.655Z,10.45
2023-02-03T07:12:42.691Z,10.66
2023-02-03T07:15:10.077Z,10.70
2023-02-03T07:17:36.995Z,10.76
2023-02-03T07:20:04.661Z,10.53
2023-02-03T07:22:31.341Z,10.64
2023-02-03T07:24:57.936Z,10.65
2023-02-03T07:27:25.337Z,10.79
2023-02-03T07:29:52.011Z,10.83
2023-02-03T07:32:18.635Z,11.01
2023-02-03T07:34:45.235Z,10.89
2023-02-03T07:37:11.820Z,10.77
2023-02-03T07:39:42.309Z,11.13
2023-02-03T07:42:09.005Z,10.99
2023-02-03T07:44:38.850Z,11.02
2023-02-03T07:47:05.786Z,11.01
2023-02-03T07:49:32.687Z,10.97
2023-02-03T07:51:59.594Z,11.20
2023-02-03T07:54:27.026Z,10.92
2023-02-03T07:56:54.530Z,11.10
2023-02-03T07:59:21.949Z,11.06
2023-02-03T08:01:49.046Z,11.31
2023-02-03T08:04:17.274Z,11.29
2023-02-03T08:06:44.051Z,11.30
2023-02-03T08:09:10.718Z,11.39
2023-02-03T08:11:37.321Z,11.45
2023-02-03T08:14:04.054Z,11.22
2023-02-03T08:16:30.880Z,11.25
2023-02-03T08:18:58.316Z,11.36
2023-02-03T08:21:24.972Z,11.43
2023-02-03T08:23:51.610Z,11.39
2023-02-03T08:26:18.238Z,11.55
2023-02-03T08:28:48.831Z,11.48
2023-02-03T08:31:15.953Z,11.49
2023-02-03T08:33:42.655Z,11.46
2023-02-03T08:36:11.239Z,11.51
2023-02-03T08:38:38.983Z,11.44
2023-02-03T08:41:11.041Z,11.35
2023-02-03T08:43:38.298Z,11.38
2023-02-03T08:46:07.112Z,11.33
2023-02-03T08:48:34.865Z,11.35
2023-02-03T08:51:01.669Z,11.24
2023-02-03T08:53:28.519Z,11.10
2023-02-03T08:55:56.259Z,11.32
2023-02-03T08:58:23.042Z,11.46
2023-02-03T09:00:49.979Z,11.37
2023-02-03T09:03:16.769Z,11.17
2023-02-03T09:05:43.477Z,11.13
2023-02-03T09:08:10.198Z,11.33
2023-02-03T09:10:37.198Z,11.50
2023-02-03T09:13:03.860Z,11.62
2023-02-03T09:15:30.464Z,11.58
2023-02-03T09:17:57.784Z,11.58
2023-02-03T09:20:26.367Z,11.74
2023-02-03T09:22:54.920Z,11.72
2023-02-03T09:25:21.690Z,11.64
2023-02-03T09:27:48.437Z,11.53
2023-02-03T09:30:15.256Z,11.42
2023-02-03T09:32:41.902Z,11.23
2023-02-03T09:35:08.555Z,11.37
2023-02-03T09:37:35.196Z,11.38
2023-02-03T09:40:02.528Z,11.37
2023-02-03T09:42:51.090Z,11.33
2023-02-03T09:45:28.350Z,11.24
2023-02-03T09:48:03.629Z,11.47
2023-02-03T09:50:35.095Z,11.59
2023-02-03T09:53:12.269Z,11.33
2023-02-03T09:55:46.221Z,11.42
2023-02-03T09:58:15.671Z,11.33
2023-02-03T10:00:50.312Z,11.37
2023-02-03T10:03:24.425Z,11.02
2023-02-03T10:06:32.473Z,11.19
2023-02-03T10:09:11.331Z,11.07
2023-02-03T10:11:50.253Z,11.24
2023-02-03T10:14:38.373Z,11.05
2023-02-03T10:17:39.273Z,11.37
2023-02-03T10:20:09.008Z,11.56
2023-02-03T10:22:43.404Z,11.23
2023-02-03T10:25:30.604Z,11.42
2023-02-03T10:28:03.107Z,11.44
2023-02-03T10:30:38.301Z,11.46
2023-02-03T10:33:13.534Z,11.50
2023-02-03T10:35:45.714Z,11.64
2023-02-03T10:38:22.042Z,11.56
2023-02-03T10:40:48.784Z,11.53
2023-02-03T10:43:34.162Z,11.32
2023-02-03T10:46:00.884Z,11.36
2023-02-03T10:48:27.726Z,11.29
2023-02-03T10:50:55.891Z,11.35
2023-02-03T10:53:22.616Z,11.26
2023-02-03T10:56:00.211Z,11.02
2023-02-03T10:58:29.162Z,11.30
2023-02-03T11:01:05.016Z,11.36
2023-02-03T11:03:31.974Z,11.33
2023-02-03T11:06:05.101Z,11.30
2023-02-03T11:08:34.862Z,11.24
2023-02-03T11:11:04.745Z,11.34
2023-02-03T11:13:31.544Z,11.31
2023-02-03T11:16:06.160Z,11.12
2023-02-03T11:18:57.899Z,11.11
2023-02-03T11:21:27.741Z,11.37
2023-02-03T11:24:00.380Z,11.36
2023-02-03T11:26:32.775Z,11.17
2023-02-03T11:29:01.203Z,11.23
2023-02-03T11:31:49.086Z,10.94
2023-02-03T11:34:19.128Z,11.22
2023-02-03T11:36:45.778Z,11.14
2023-02-03T11:39:29.969Z,11.28
2023-02-03T11:41:56.866Z,11.43
2023-02-03T11:44:26.129Z,11.20
2023-02-03T11:47:17.926Z,11.16
2023-02-03T11:49:59.475Z,11.25
2023-02-03T11:52:33.743Z,11.29
2023-02-03T11:55:08.438Z,11.42
2023-02-03T11:57:47.010Z,11.05
2023-02-03T12:00:46.952Z,11.53
2023-02-03T12:03:30.715Z,11.46
2023-02-03T12:06:29.578Z,11.35
2023-02-03T12:09:23.941Z,11.68
2023-02-03T12:12:19.623Z,11.76
2023-02-03T12:14:55.249Z,11.59
2023-02-03T12:17:33.926Z,11.40
2023-02-03T12:20:32.051Z,11.59
2023-02-03T12:23:23.711Z,11.61
2023-02-03T12:26:02.674Z,11.56
2023-02-03T12:28:37.310Z,11.86
2023-02-03T12:31:20.823Z,11.75
2023-02-03T12:33:54.434Z,11.73
2023-02-03T12:36:33.753Z,11.80
2023-02-03T12:39:11.409Z,12.02
2023-02-03T12:41:52.021Z,11.63
2023-02-03T12:44:29.397Z,11.68
2023-02-03T12:47:04.948Z,11.69
2023-02-03T12:49:43.779Z,11.89
2023-02-03T12:52:14.563Z,11.77
2023-02-03T12:54:50.671Z,11.91
2023-02-03T12:57:25.325Z,11.72
2023-02-03T13:00:07.248Z,11.50
2023-02-03T13:02:59.214Z,11.57
2023-02-03T13:05:41.009Z,11.48
2023-02-03T13:08:16.813Z,11.60
2023-02-03T13:11:15.426Z,11.85
2023-02-03T13:13:48.630Z,11.78
2023-02-03T13:16:19.915Z,11.76
2023-02-03T13:18:53.822Z,11.82
2023-02-03T13:21:20.569Z,11.77
2023-02-03T13:23:51.483Z,11.58
2023-02-03T13:26:33.401Z,11.55
2023-02-03T13:29:50.568Z,11.66
2023-02-03T13:32:59.242Z,11.73
2023-02-03T13:35:52.631Z,12.05
2023-02-03T13:38:26.583Z,11.61
2023-02-03T13:41:15.961Z,11.81
2023-02-03T13:43:48.696Z,11.88
2023-02-03T13:46:36.157Z,11.77
2023-02-03T13:49:08.763Z,11.76
2023-02-03T13:51:46.053Z,11.84
2023-02-03T13:54:27.545Z,11.99
2023-02-03T13:57:00.011Z,11.84
2023-02-03T13:59:53.096Z,11.91
2023-02-03T14:02:19.724Z,11.93
2023-02-03T14:04:46.353Z,12.21
2023-02-03T14:07:34.032Z,11.69
2023-02-03T14:10:13.122Z,12.11
2023-02-03T14:12:51.860Z,11.74
2023-02-03T14:15:18.487Z,11.85
2023-02-03T14:17:45.196Z,11.79
2023-02-03T14:20:26.742Z,11.94
2023-02-03T14:22:55.413Z,11.81
2023-02-03T14:25:22.423Z,11.85
2023-02-03T14:28:00.705Z,11.79
2023-02-03T14:30:27.585Z,11.76
2023-02-03T14:32:57.895Z,11.77
2023-02-03T14:35:36.552Z,11.87
2023-02-03T14:38:07.299Z,11.67
2023-02-03T14:40:51.826Z,12.05
2023-02-03T14:43:26.920Z,11.88
2023-02-03T14:46:04.801Z,11.96
2023-02-03T14:48:46.736Z,12.14
2023-02-03T14:51:32.055Z,12.00
2023-02-03T14:54:45.653Z,11.59
2023-02-03T14:58:02.787Z,11.70
2023-02-03T15:00:34.129Z,11.73
2023-02-03T15:03:06.875Z,11.83
2023-02-03T15:05:48.365Z,11.59
2023-02-03T15:08:43.138Z,11.81
2023-02-03T15:11:27.792Z,11.85
2023-02-03T15:13:56.875Z,11.97
2023-02-03T15:16:25.114Z,11.87
2023-02-03T15:18:57.963Z,11.87
2023-02-03T15:21:25.591Z,11.98
2023-02-03T15:23:53.540Z,12.03
2023-02-03T15:26:24.188Z,11.87
2023-02-03T15:29:02.563Z,11.78
2023-02-03T15:31:34.237Z,11.88
2023-02-03T15:34:18.831Z,11.78
2023-02-03T15:36:51.865Z,11.57
2023-02-03T15:39:45.972Z,11.65
2023-02-03T15:42:24.398Z,11.95
2023-02-03T15:45:03.197Z,11.81
2023-02-03T15:47:35.370Z,11.82
2023-02-03T15:50:15.570Z,11.75
2023-02-03T15:52:44.354Z,11.97
2023-02-03T15:55:20.789Z,11.95
2023-02-03T15:57:49.885Z,11.74
2023-02-03T16:00:33.310Z,11.80
2023-02-03T16:03:00.783Z,11.82
2023-02-03T16:05:33.812Z,11.91
2023-02-03T16:08:39.716Z,11.64
2023-02-03T16:11:36.656Z,11.79
2023-02-03T16:14:10.648Z,11.75
2023-02-03T16:16:49.397Z,11.91
2023-02-03T16:19:23.392Z,11.74
2023-02-03T16:21:49.976Z,11.88
2023-02-03T16:24:40.940Z,12.02
2023-02-03T16:27:19.997Z,11.85
2023-02-03T16:30:05.584Z,11.90
2023-02-03T16:32:50.813Z,11.74
2023-02-03T16:35:36.122Z,12.00
2023-02-03T16:38:26.465Z,11.75
2023-02-03T16:41:11.712Z,11.83
2023-02-03T16:43:57.073Z,11.87
2023-02-03T16:46:42.424Z,11.73
2023-02-03T16:49:27.581Z,11.66
2023-02-03T16:51:54.264Z,11.95
2023-02-03T16:54:20.934Z,11.95
2023-02-03T16:56:47.662Z,11.65
2023-02-03T16:59:14.471Z,11.97
2023-02-03T17:01:41.280Z,11.70
2023-02-03T17:04:08.250Z,11.93
2023-02-03T17:06:38.171Z,11.64
2023-02-03T17:09:04.900Z,11.95
2023-02-03T17:11:31.594Z,12.01
2023-02-03T17:13:58.436Z,11.77
2023-02-03T17:16:26.978Z,11.76
2023-02-03T17:18:54.929Z,11.75
2023-02-03T17:21:27.777Z,11.82
2023-02-03T17:23:55.278Z,11.96
2023-02-03T17:26:21.905Z,11.84
2023-02-03T17:28:48.621Z,11.95
2023-02-03T17:31:18.833Z,11.85
2023-02-03T17:33:46.275Z,11.74
2023-02-03T17:36:16.062Z,11.72
2023-02-03T17:55:13.239Z,11.90
2023-02-03T17:57:40.088Z,11.75
2023-02-03T18:00:07.830Z,11.67
2023-02-03T18:02:41.411Z,11.89
2023-02-03T18:05:08.128Z,11.88
2023-02-03T18:07:34.972Z,11.84
2023-02-03T18:10:01.635Z,11.86
2023-02-03T18:12:28.298Z,11.50
2023-02-03T18:14:55.403Z,11.72
2023-02-03T18:17:22.615Z,11.59
2023-02-03T18:19:55.805Z,11.94
2023-02-03T18:22:23.746Z,12.05
2023-02-03T18:24:54.800Z,11.69
2023-02-03T18:27:24.056Z,12.15
2023-02-03T18:29:50.701Z,12.04
2023-02-03T18:32:17.386Z,11.96
2023-02-03T18:34:44.107Z,12.10
2023-02-03T18:37:11.433Z,12.10
2023-02-03T18:39:38.136Z,11.96
2023-02-03T18:42:07.032Z,12.03
2023-02-03T18:44:33.959Z,12.09
2023-02-03T18:47:06.802Z,12.27
2023-02-03T18:49:35.915Z,12.01
2023-02-03T18:52:02.894Z,12.12
2023-02-03T18:54:29.756Z,12.17
2023-02-03T18:56:58.912Z,12.13
2023-02-03T18:59:26.169Z,12.14
2023-02-03T19:01:53.080Z,12.07
2023-02-03T19:04:20.041Z,12.20
2023-02-03T19:06:47.542Z,12.32
2023-02-03T19:09:16.982Z,12.20
2023-02-03T19:11:44.390Z,12.23
2023-02-03T19:14:13.448Z,12.22
2023-02-03T19:16:40.212Z,12.25
2023-02-03T19:19:06.855Z,12.22
2023-02-03T19:21:33.539Z,12.05
2023-02-03T19:24:00.320Z,12.36
2023-02-03T19:26:27.815Z,12.10
2023-02-03T19:28:55.896Z,12.13
2023-02-03T19:31:22.855Z,12.16
2023-02-03T19:33:49.838Z,12.21
2023-02-03T19:36:16.616Z,12.22
2023-02-03T19:38:43.484Z,12.33
2023-02-03T19:41:11.600Z,12.26
2023-02-03T19:43:39.905Z,12.19
2023-02-03T19:46:07.325Z,12.16
2023-02-03T19:48:34.212Z,12.06
2023-02-03T19:51:00.935Z,12.23
2023-02-03T19:53:27.667Z,12.44
2023-02-03T19:55:54.527Z,12.32
2023-02-03T19:58:21.369Z,12.36
2023-02-03T20:00:47.994Z,12.27
2023-02-03T20:03:17.158Z,12.55
2023-02-03T20:05:43.932Z,12.41
2023-02-03T20:08:13.007Z,12.32
2023-02-03T20:10:40.604Z,12.34
2023-02-03T20:13:07.454Z,12.42
2023-02-03T20:15:34.134Z,12.46
2023-02-03T20:18:04.405Z,12.52
2023-02-03T20:20:31.342Z,12.27
2023-02-03T20:22:58.360Z,12.41
2023-02-03T20:25:25.094Z,12.57
2023-02-03T20:27:51.820Z,12.61
2023-02-03T20:30:18.463Z,12.46
2023-02-03T20:32:45.203Z,12.52
2023-02-03T20:35:12.662Z,12.67
2023-02-03T20:37:39.532Z,12.50
2023-02-03T20:40:17.219Z,12.55
2023-02-03T20:42:43.978Z,12.62
2023-02-03T20:45:14.249Z,12.71
2023-02-03T20:47:41.498Z,12.87
2023-02-03T20:50:20.552Z,12.61
2023-02-03T20:52:49.167Z,12.69
2023-02-03T20:55:22.404Z,12.55
2023-02-03T20:57:54.957Z,12.68
2023-02-03T21:00:24.806Z,12.78
2023-02-03T21:03:11.194Z,12.70
2023-02-03T21:05:41.983Z,12.60
2023-02-03T21:08:19.862Z,12.72
2023-02-03T21:10:48.037Z,12.66
2023-02-03T21:13:21.994Z,12.87
2023-02-03T21:15:56.116Z,12.65
2023-02-03T21:18:29.292Z,12.69
2023-02-03T21:20:59.151Z,12.67
2023-02-03T21:23:35.804Z,12.72
2023-02-03T21:26:13.902Z,12.46
2023-02-03T21:28:40.588Z,12.57
2023-02-03T21:31:22.256Z,12.70
2023-02-03T21:33:49.062Z,12.51
2023-02-03T21:36:21.650Z,12.68
2023-02-03T21:38:50.570Z,12.74
2023-02-03T21:41:22.057Z,12.55
2023-02-03T21:43:53.784Z,12.79
2023-02-03T21:46:26.830Z,12.73
2023-02-03T21:48:58.024Z,12.71
2023-02-03T21:51:27.962Z,12.72
2023-02-03T21:54:03.475Z,12.82
2023-02-03T21:56:39.932Z,12.94
2023-02-03T21:59:24.290Z,12.78
2023-02-03T22:01:52.969Z,12.76
2023-02-03T22:04:19.801Z,12.39
2023-02-03T22:06:50.865Z,12.69
2023-02-03T22:09:25.495Z,12.54
2023-02-03T22:11:53.046Z,12.65
2023-02-03T22:14:21.088Z,12.60
2023-02-03T22:16:47.975Z,12.64
2023-02-03T22:19:17.362Z,12.68
2023-02-03T22:21:44.756Z,12.76
2023-02-03T22:24:11.538Z,12.87
2023-02-03T22:26:38.634Z,12.81
2023-02-03T22:29:05.632Z,12.96
2023-02-03T22:31:32.703Z,12.77
2023-02-03T22:33:59.524Z,12.71
2023-02-03T22:36:26.183Z,12.59
2023-02-03T22:38:52.955Z,12.73
2023-02-03T22:41:20.934Z,12.60
2023-02-03T22:43:47.716Z,12.70
2023-02-03T22:46:14.460Z,12.58
2023-02-03T22:48:41.173Z,12.81
2023-02-03T22:51:08.132Z,12.76
2023-02-03T22:53:34.969Z,12.79
2023-02-03T22:56:01.815Z,12.61
2023-02-03T22:58:28.490Z,12.93
2023-02-03T23:00:55.218Z,12.77
2023-02-03T23:03:22.063Z,12.77
2023-02-03T23:05:48.775Z,12.80
2023-02-03T23:08:15.630Z,12.73
2023-02-03T23:10:42.319Z,12.75
2023-02-03T23:13:09.076Z,12.61
2023-02-03T23:15:35.775Z,12.84
2023-02-03T23:18:02.466Z,12.84
2023-02-03T23:20:29.555Z,12.76
2023-02-03T23:22:56.530Z,12.82
2023-02-03T23:25:23.249Z,12.92
2023-02-03T23:27:49.997Z,12.91
2023-02-03T23:30:16.708Z,12.85
2023-02-03T23:32:43.357Z,13.02
2023-02-03T23:35:28.663Z,12.98
2023-02-03T23:37:55.282Z,12.74
2023-02-03T23:40:22.119Z,12.86
2023-02-03T23:42:48.962Z,12.88
2023-02-03T23:45:16.212Z,12.89
2023-02-03T23:47:44.540Z,12.92
2023-02-03T23:50:14.442Z,13.07
2023-02-03T23:52:41.199Z,12.84
2023-02-03T23:55:11.650Z,12.63
2023-02-03T23:57:38.365Z,12.74
